sensor_id;sensor_type;location;lat;lon;timestamp;P1;durP1;ratioP1;P2;durP2;ratioP2
16199;SDS011;8207;52.494;4.654;2023-05-10T00:00:32;13.25;;;11.63;;
16199;SDS011;8207;52.494;4.654;2023-05-10T00:02:59;14.45;;;11.55;;
16199;SDS011;8207;52.494;4.654;2023-05-10T00:05:26;12.67;;;11.40;;
16199;SDS011;8207;52.494;4.654;2023-05-10T00:07:54;10.70;;;9.68;;
16199;SDS011;8207;52.494;4.654;2023-05-10T00:10:21;12.80;;;11.40;;
16199;SDS011;8207;52.494;4.654;2023-05-10T00:12:48;13.80;;;12.15;;
16199;SDS011;8207;52.494;4.654;2023-05-10T00:15:15;13.23;;;11.83;;
16199;SDS011;8207;52.494;4.654;2023-05-10T00:17:42;13.27;;;11.87;;
16199;SDS011;8207;52.494;4.654;2023-05-10T00:20:09;14.38;;;12.82;;
16199;SDS011;8207;52.494;4.654;2023-05-10T00:22:37;17.75;;;14.27;;
16199;SDS011;8207;52.494;4.654;2023-05-10T00:25:06;16.17;;;14.43;;
16199;SDS011;8207;52.494;4.654;2023-05-10T00:27:34;22.73;;;18.83;;
16199;SDS011;8207;52.494;4.654;2023-05-10T00:30:01;19.13;;;17.00;;
16199;SDS011;8207;52.494;4.654;2023-05-10T00:32:28;20.37;;;18.30;;
16199;SDS011;8207;52.494;4.654;2023-05-10T00:34:54;24.57;;;18.40;;
16199;SDS011;8207;52.494;4.654;2023-05-10T00:37:21;21.27;;;17.50;;
16199;SDS011;8207;52.494;4.654;2023-05-10T00:39:48;21.88;;;19.65;;
16199;SDS011;8207;52.494;4.654;2023-05-10T00:42:16;22.35;;;15.05;;
16199;SDS011;8207;52.494;4.654;2023-05-10T00:44:43;22.33;;;16.13;;
16199;SDS011;8207;52.494;4.654;2023-05-10T00:47:10;17.63;;;14.73;;
16199;SDS011;8207;52.494;4.654;2023-05-10T00:49:37;16.38;;;14.45;;
16199;SDS011;8207;52.494;4.654;2023-05-10T00:52:04;19.27;;;15.03;;
16199;SDS011;8207;52.494;4.654;2023-05-10T00:54:31;17.73;;;14.80;;
16199;SDS011;8207;52.494;4.654;2023-05-10T00:56:58;15.70;;;14.05;;
16199;SDS011;8207;52.494;4.654;2023-05-10T00:59:26;20.10;;;16.30;;
16199;SDS011;8207;52.494;4.654;2023-05-10T01:01:53;20.47;;;15.53;;
16199;SDS011;8207;52.494;4.654;2023-05-10T01:04:20;21.83;;;16.60;;
16199;SDS011;8207;52.494;4.654;2023-05-10T01:06:50;21.00;;;15.20;;
16199;SDS011;8207;52.494;4.654;2023-05-10T01:09:18;26.63;;;16.98;;
16199;SDS011;8207;52.494;4.654;2023-05-10T01:11:45;21.70;;;15.67;;
16199;SDS011;8207;52.494;4.654;2023-05-10T01:14:12;25.75;;;15.10;;
16199;SDS011;8207;52.494;4.654;2023-05-10T01:16:42;17.80;;;11.43;;
16199;SDS011;8207;52.494;4.654;2023-05-10T01:19:12;19.87;;;12.27;;
16199;SDS011;8207;52.494;4.654;2023-05-10T01:21:47;24.63;;;14.33;;
16199;SDS011;8207;52.494;4.654;2023-05-10T01:30:30;23.67;;;12.57;;
16199;SDS011;8207;52.494;4.654;2023-05-10T01:33:12;19.73;;;10.40;;
16199;SDS011;8207;52.494;4.654;2023-05-10T01:35:45;17.17;;;10.37;;
16199;SDS011;8207;52.494;4.654;2023-05-10T01:38:18;26.00;;;11.63;;
16199;SDS011;8207;52.494;4.654;2023-05-10T01:40:52;16.43;;;9.67;;
16199;SDS011;8207;52.494;4.654;2023-05-10T01:43:28;16.37;;;9.47;;
16199;SDS011;8207;52.494;4.654;2023-05-10T01:46:02;13.93;;;9.17;;
16199;SDS011;8207;52.494;4.654;2023-05-10T01:48:37;14.87;;;9.53;;
16199;SDS011;8207;52.494;4.654;2023-05-10T01:51:11;14.67;;;8.40;;
16199;SDS011;8207;52.494;4.654;2023-05-10T01:53:39;14.33;;;8.30;;
16199;SDS011;8207;52.494;4.654;2023-05-10T01:56:08;16.17;;;8.23;;
16199;SDS011;8207;52.494;4.654;2023-05-10T01:58:37;15.63;;;9.43;;
16199;SDS011;8207;52.494;4.654;2023-05-10T02:01:07;28.53;;;9.03;;
16199;SDS011;8207;52.494;4.654;2023-05-10T02:03:37;16.23;;;8.00;;
16199;SDS011;8207;52.494;4.654;2023-05-10T02:06:06;20.80;;;9.07;;
16199;SDS011;8207;52.494;4.654;2023-05-10T02:08:35;15.43;;;8.30;;
16199;SDS011;8207;52.494;4.654;2023-05-10T02:11:02;18.23;;;7.83;;
16199;SDS011;8207;52.494;4.654;2023-05-10T02:13:30;23.07;;;8.93;;
16199;SDS011;8207;52.494;4.654;2023-05-10T02:15:58;11.07;;;7.43;;
16199;SDS011;8207;52.494;4.654;2023-05-10T02:18:26;12.13;;;6.90;;
16199;SDS011;8207;52.494;4.654;2023-05-10T02:20:56;16.30;;;8.17;;
16199;SDS011;8207;52.494;4.654;2023-05-10T02:23:25;15.07;;;8.73;;
16199;SDS011;8207;52.494;4.654;2023-05-10T02:25:53;14.07;;;9.00;;
16199;SDS011;8207;52.494;4.654;2023-05-10T02:28:21;13.67;;;8.30;;
16199;SDS011;8207;52.494;4.654;2023-05-10T02:30:49;14.90;;;8.88;;
16199;SDS011;8207;52.494;4.654;2023-05-10T02:33:17;11.47;;;7.57;;
16199;SDS011;8207;52.494;4.654;2023-05-10T02:35:45;11.83;;;7.47;;
16199;SDS011;8207;52.494;4.654;2023-05-10T02:38:14;13.33;;;8.47;;
16199;SDS011;8207;52.494;4.654;2023-05-10T02:40:42;13.50;;;7.13;;
16199;SDS011;8207;52.494;4.654;2023-05-10T02:43:11;12.07;;;7.80;;
16199;SDS011;8207;52.494;4.654;2023-05-10T02:45:40;13.07;;;8.47;;
16199;SDS011;8207;52.494;4.654;2023-05-10T02:48:08;14.23;;;8.47;;
16199;SDS011;8207;52.494;4.654;2023-05-10T02:50:36;13.20;;;8.90;;
16199;SDS011;8207;52.494;4.654;2023-05-10T02:53:06;14.53;;;8.93;;
16199;SDS011;8207;52.494;4.654;2023-05-10T02:55:40;14.03;;;9.43;;
16199;SDS011;8207;52.494;4.654;2023-05-10T02:58:08;17.23;;;9.67;;
16199;SDS011;8207;52.494;4.654;2023-05-10T03:00:35;14.63;;;9.83;;
16199;SDS011;8207;52.494;4.654;2023-05-10T03:03:02;14.10;;;9.37;;
16199;SDS011;8207;52.494;4.654;2023-05-10T03:05:29;12.37;;;9.27;;
16199;SDS011;8207;52.494;4.654;2023-05-10T03:07:56;12.33;;;8.87;;
16199;SDS011;8207;52.494;4.654;2023-05-10T03:10:24;13.83;;;9.20;;
16199;SDS011;8207;52.494;4.654;2023-05-10T03:13:00;14.60;;;9.70;;
16199;SDS011;8207;52.494;4.654;2023-05-10T03:15:34;14.77;;;10.40;;
16199;SDS011;8207;52.494;4.654;2023-05-10T03:18:22;13.20;;;8.90;;
16199;SDS011;8207;52.494;4.654;2023-05-10T03:20:55;12.90;;;9.17;;
16199;SDS011;8207;52.494;4.654;2023-05-10T03:23:29;15.33;;;10.27;;
16199;SDS011;8207;52.494;4.654;2023-05-10T03:26:03;13.93;;;8.93;;
16199;SDS011;8207;52.494;4.654;2023-05-10T03:28:33;12.90;;;9.27;;
16199;SDS011;8207;52.494;4.654;2023-05-10T03:31:00;13.43;;;9.23;;
16199;SDS011;8207;52.494;4.654;2023-05-10T03:33:30;12.87;;;9.43;;
16199;SDS011;8207;52.494;4.654;2023-05-10T03:35:57;15.67;;;10.80;;
16199;SDS011;8207;52.494;4.654;2023-05-10T03:38:24;13.40;;;9.13;;
16199;SDS011;8207;52.494;4.654;2023-05-10T03:40:51;15.13;;;10.83;;
16199;SDS011;8207;52.494;4.654;2023-05-10T03:43:18;12.07;;;9.23;;
16199;SDS011;8207;52.494;4.654;2023-05-10T03:45:46;12.50;;;9.20;;
16199;SDS011;8207;52.494;4.654;2023-05-10T03:48:13;16.33;;;10.87;;
16199;SDS011;8207;52.494;4.654;2023-05-10T03:50:40;17.23;;;11.80;;
16199;SDS011;8207;52.494;4.654;2023-05-10T03:53:07;14.10;;;10.73;;
16199;SDS011;8207;52.494;4.654;2023-05-10T03:55:34;20.90;;;13.37;;
16199;SDS011;8207;52.494;4.654;2023-05-10T03:58:01;15.30;;;12.03;;
16199;SDS011;8207;52.494;4.654;2023-05-10T04:00:28;13.93;;;12.03;;
16199;SDS011;8207;52.494;4.654;2023-05-10T04:02:56;15.07;;;12.80;;
16199;SDS011;8207;52.494;4.654;2023-05-10T04:05:23;17.43;;;13.20;;
16199;SDS011;8207;52.494;4.654;2023-05-10T04:07:50;17.83;;;13.90;;
16199;SDS011;8207;52.494;4.654;2023-05-10T04:10:17;15.17;;;11.93;;
16199;SDS011;8207;52.494;4.654;2023-05-10T04:12:44;15.40;;;11.50;;
16199;SDS011;8207;52.494;4.654;2023-05-10T04:15:12;15.80;;;12.30;;
16199;SDS011;8207;52.494;4.654;2023-05-10T04:17:38;16.53;;;12.20;;
16199;SDS011;8207;52.494;4.654;2023-05-10T04:20:07;16.50;;;11.77;;
16199;SDS011;8207;52.494;4.654;2023-05-10T04:22:35;14.80;;;12.10;;
16199;SDS011;8207;52.494;4.654;2023-05-10T04:25:01;14.10;;;11.00;;
16199;SDS011;8207;52.494;4.654;2023-05-10T04:27:29;18.03;;;13.77;;
16199;SDS011;8207;52.494;4.654;2023-05-10T04:29:56;18.20;;;14.07;;
16199;SDS011;8207;52.494;4.654;2023-05-10T04:32:23;18.27;;;13.37;;
16199;SDS011;8207;52.494;4.654;2023-05-10T04:34:50;18.43;;;13.07;;
16199;SDS011;8207;52.494;4.654;2023-05-10T04:37:18;17.70;;;13.23;;
16199;SDS011;8207;52.494;4.654;2023-05-10T04:39:46;14.77;;;11.53;;
16199;SDS011;8207;52.494;4.654;2023-05-10T04:42:13;16.97;;;13.60;;
16199;SDS011;8207;52.494;4.654;2023-05-10T04:44:40;15.87;;;13.13;;
16199;SDS011;8207;52.494;4.654;2023-05-10T04:47:07;16.40;;;13.77;;
16199;SDS011;8207;52.494;4.654;2023-05-10T04:49:34;18.00;;;13.77;;
16199;SDS011;8207;52.494;4.654;2023-05-10T04:52:01;21.80;;;16.83;;
16199;SDS011;8207;52.494;4.654;2023-05-10T04:54:29;19.43;;;15.70;;
16199;SDS011;8207;52.494;4.654;2023-05-10T04:56:56;17.30;;;13.70;;
16199;SDS011;8207;52.494;4.654;2023-05-10T04:59:23;16.53;;;12.37;;
16199;SDS011;8207;52.494;4.654;2023-05-10T05:01:50;15.83;;;12.97;;
16199;SDS011;8207;52.494;4.654;2023-05-10T05:04:18;14.80;;;12.20;;
16199;SDS011;8207;52.494;4.654;2023-05-10T05:06:44;13.47;;;11.53;;
16199;SDS011;8207;52.494;4.654;2023-05-10T05:09:11;15.37;;;12.23;;
16199;SDS011;8207;52.494;4.654;2023-05-10T05:11:39;13.73;;;11.63;;
16199;SDS011;8207;52.494;4.654;2023-05-10T05:14:06;15.97;;;13.03;;
16199;SDS011;8207;52.494;4.654;2023-05-10T05:16:33;16.87;;;12.40;;
16199;SDS011;8207;52.494;4.654;2023-05-10T05:19:00;18.23;;;12.43;;
16199;SDS011;8207;52.494;4.654;2023-05-10T05:21:27;18.30;;;12.67;;
16199;SDS011;8207;52.494;4.654;2023-05-10T05:23:54;19.13;;;13.27;;
16199;SDS011;8207;52.494;4.654;2023-05-10T05:26:21;16.70;;;12.10;;
16199;SDS011;8207;52.494;4.654;2023-05-10T05:28:49;14.93;;;11.97;;
16199;SDS011;8207;52.494;4.654;2023-05-10T05:31:18;14.83;;;11.47;;
16199;SDS011;8207;52.494;4.654;2023-05-10T05:33:45;16.27;;;12.90;;
16199;SDS011;8207;52.494;4.654;2023-05-10T05:36:12;14.47;;;11.20;;
16199;SDS011;8207;52.494;4.654;2023-05-10T05:38:39;14.00;;;10.77;;
16199;SDS011;8207;52.494;4.654;2023-05-10T05:41:06;12.40;;;10.33;;
16199;SDS011;8207;52.494;4.654;2023-05-10T05:43:32;12.97;;;10.33;;
16199;SDS011;8207;52.494;4.654;2023-05-10T05:46:01;12.07;;;10.70;;
16199;SDS011;8207;52.494;4.654;2023-05-10T05:48:29;14.07;;;10.60;;
16199;SDS011;8207;52.494;4.654;2023-05-10T05:50:56;13.30;;;11.00;;
16199;SDS011;8207;52.494;4.654;2023-05-10T05:53:23;14.20;;;11.03;;
16199;SDS011;8207;52.494;4.654;2023-05-10T05:55:50;13.60;;;11.07;;
16199;SDS011;8207;52.494;4.654;2023-05-10T05:58:19;14.43;;;11.20;;
16199;SDS011;8207;52.494;4.654;2023-05-10T06:00:46;14.63;;;11.27;;
16199;SDS011;8207;52.494;4.654;2023-05-10T06:03:14;18.30;;;13.47;;
16199;SDS011;8207;52.494;4.654;2023-05-10T06:05:41;13.47;;;10.30;;
16199;SDS011;8207;52.494;4.654;2023-05-10T06:08:08;12.33;;;10.13;;
16199;SDS011;8207;52.494;4.654;2023-05-10T06:10:35;11.60;;;9.27;;
16199;SDS011;8207;52.494;4.654;2023-05-10T06:13:02;12.83;;;9.80;;
16199;SDS011;8207;52.494;4.654;2023-05-10T06:15:29;18.73;;;12.37;;
16199;SDS011;8207;52.494;4.654;2023-05-10T06:17:55;16.33;;;11.20;;
16199;SDS011;8207;52.494;4.654;2023-05-10T06:20:24;13.27;;;10.50;;
16199;SDS011;8207;52.494;4.654;2023-05-10T06:22:51;14.90;;;10.03;;
16199;SDS011;8207;52.494;4.654;2023-05-10T06:25:17;13.13;;;10.63;;
16199;SDS011;8207;52.494;4.654;2023-05-10T06:27:44;15.07;;;11.00;;
16199;SDS011;8207;52.494;4.654;2023-05-10T06:30:12;14.57;;;12.00;;
16199;SDS011;8207;52.494;4.654;2023-05-10T06:32:40;16.83;;;11.47;;
16199;SDS011;8207;52.494;4.654;2023-05-10T06:35:08;13.97;;;11.87;;
16199;SDS011;8207;52.494;4.654;2023-05-10T06:37:37;12.83;;;10.43;;
16199;SDS011;8207;52.494;4.654;2023-05-10T06:40:05;12.40;;;10.67;;
16199;SDS011;8207;52.494;4.654;2023-05-10T06:42:32;11.97;;;10.27;;
16199;SDS011;8207;52.494;4.654;2023-05-10T06:44:59;14.67;;;10.70;;
16199;SDS011;8207;52.494;4.654;2023-05-10T06:47:26;14.73;;;11.20;;
16199;SDS011;8207;52.494;4.654;2023-05-10T06:49:53;14.30;;;11.07;;
16199;SDS011;8207;52.494;4.654;2023-05-10T06:52:20;12.80;;;9.97;;
16199;SDS011;8207;52.494;4.654;2023-05-10T06:54:49;13.87;;;10.97;;
16199;SDS011;8207;52.494;4.654;2023-05-10T06:57:16;14.80;;;11.05;;
16199;SDS011;8207;52.494;4.654;2023-05-10T06:59:44;10.70;;;9.60;;
16199;SDS011;8207;52.494;4.654;2023-05-10T07:02:11;13.00;;;10.13;;
16199;SDS011;8207;52.494;4.654;2023-05-10T07:04:38;12.43;;;9.30;;
16199;SDS011;8207;52.494;4.654;2023-05-10T07:07:04;11.95;;;9.07;;
16199;SDS011;8207;52.494;4.654;2023-05-10T07:09:31;11.50;;;9.50;;
16199;SDS011;8207;52.494;4.654;2023-05-10T07:11:59;11.73;;;8.50;;
16199;SDS011;8207;52.494;4.654;2023-05-10T07:14:26;12.93;;;8.13;;
16199;SDS011;8207;52.494;4.654;2023-05-10T07:16:53;10.20;;;7.93;;
16199;SDS011;8207;52.494;4.654;2023-05-10T07:19:20;10.50;;;8.03;;
16199;SDS011;8207;52.494;4.654;2023-05-10T07:21:47;8.35;;;7.15;;
16199;SDS011;8207;52.494;4.654;2023-05-10T07:24:14;8.33;;;6.70;;
16199;SDS011;8207;52.494;4.654;2023-05-10T07:26:41;7.50;;;6.70;;
16199;SDS011;8207;52.494;4.654;2023-05-10T07:29:09;7.35;;;6.60;;
16199;SDS011;8207;52.494;4.654;2023-05-10T07:31:36;7.57;;;6.35;;
16199;SDS011;8207;52.494;4.654;2023-05-10T07:34:03;8.38;;;6.90;;
16199;SDS011;8207;52.494;4.654;2023-05-10T07:36:29;9.05;;;8.07;;
16199;SDS011;8207;52.494;4.654;2023-05-10T07:38:57;9.13;;;6.53;;
16199;SDS011;8207;52.494;4.654;2023-05-10T07:41:24;7.22;;;6.53;;
16199;SDS011;8207;52.494;4.654;2023-05-10T07:43:51;7.07;;;6.30;;
16199;SDS011;8207;52.494;4.654;2023-05-10T07:46:19;7.53;;;6.82;;
16199;SDS011;8207;52.494;4.654;2023-05-10T07:48:45;7.13;;;6.43;;
16199;SDS011;8207;52.494;4.654;2023-05-10T07:51:12;9.32;;;7.90;;
16199;SDS011;8207;52.494;4.654;2023-05-10T07:53:39;8.27;;;6.80;;
16199;SDS011;8207;52.494;4.654;2023-05-10T07:56:19;11.68;;;7.97;;
16199;SDS011;8207;52.494;4.654;2023-05-10T07:58:47;7.93;;;7.13;;
16199;SDS011;8207;52.494;4.654;2023-05-10T08:01:14;11.13;;;8.23;;
16199;SDS011;8207;52.494;4.654;2023-05-10T08:03:42;8.02;;;7.10;;
16199;SDS011;8207;52.494;4.654;2023-05-10T08:06:09;10.93;;;8.23;;
16199;SDS011;8207;52.494;4.654;2023-05-10T08:08:36;8.02;;;6.97;;
16199;SDS011;8207;52.494;4.654;2023-05-10T08:11:03;10.73;;;7.10;;
16199;SDS011;8207;52.494;4.654;2023-05-10T08:13:30;7.82;;;7.03;;
16199;SDS011;8207;52.494;4.654;2023-05-10T08:15:57;9.70;;;7.63;;
16199;SDS011;8207;52.494;4.654;2023-05-10T08:18:24;8.98;;;7.18;;
16199;SDS011;8207;52.494;4.654;2023-05-10T08:20:52;9.77;;;7.20;;
16199;SDS011;8207;52.494;4.654;2023-05-10T08:23:19;7.70;;;6.25;;
16199;SDS011;8207;52.494;4.654;2023-05-10T08:25:46;9.85;;;6.80;;
16199;SDS011;8207;52.494;4.654;2023-05-10T08:28:13;8.05;;;6.43;;
16199;SDS011;8207;52.494;4.654;2023-05-10T08:30:40;6.85;;;5.88;;
16199;SDS011;8207;52.494;4.654;2023-05-10T08:33:06;7.47;;;6.55;;
16199;SDS011;8207;52.494;4.654;2023-05-10T08:35:33;9.43;;;6.47;;
16199;SDS011;8207;52.494;4.654;2023-05-10T08:38:01;7.47;;;5.90;;
16199;SDS011;8207;52.494;4.654;2023-05-10T08:40:28;8.35;;;6.20;;
16199;SDS011;8207;52.494;4.654;2023-05-10T08:42:57;7.90;;;6.78;;
16199;SDS011;8207;52.494;4.654;2023-05-10T08:45:31;9.55;;;6.10;;
16199;SDS011;8207;52.494;4.654;2023-05-10T08:47:59;8.80;;;6.55;;
16199;SDS011;8207;52.494;4.654;2023-05-10T08:50:28;11.07;;;7.38;;
16199;SDS011;8207;52.494;4.654;2023-05-10T08:52:57;11.82;;;7.15;;
16199;SDS011;8207;52.494;4.654;2023-05-10T08:55:28;9.38;;;7.25;;
16199;SDS011;8207;52.494;4.654;2023-05-10T08:57:55;7.60;;;6.43;;
16199;SDS011;8207;52.494;4.654;2023-05-10T09:00:22;10.15;;;7.57;;
16199;SDS011;8207;52.494;4.654;2023-05-10T09:02:49;9.75;;;6.93;;
16199;SDS011;8207;52.494;4.654;2023-05-10T09:05:16;9.00;;;6.60;;
16199;SDS011;8207;52.494;4.654;2023-05-10T09:07:43;9.10;;;7.13;;
16199;SDS011;8207;52.494;4.654;2023-05-10T09:10:10;9.20;;;7.45;;
16199;SDS011;8207;52.494;4.654;2023-05-10T09:12:40;11.48;;;7.78;;
16199;SDS011;8207;52.494;4.654;2023-05-10T09:15:09;9.55;;;7.90;;
16199;SDS011;8207;52.494;4.654;2023-05-10T09:17:36;14.25;;;9.68;;
16199;SDS011;8207;52.494;4.654;2023-05-10T09:20:05;11.68;;;9.55;;
16199;SDS011;8207;52.494;4.654;2023-05-10T09:22:32;12.10;;;9.30;;
16199;SDS011;8207;52.494;4.654;2023-05-10T09:25:06;16.30;;;10.43;;
16199;SDS011;8207;52.494;4.654;2023-05-10T09:27:34;13.63;;;10.85;;
16199;SDS011;8207;52.494;4.654;2023-05-10T09:30:03;13.32;;;10.35;;
16199;SDS011;8207;52.494;4.654;2023-05-10T09:32:38;13.40;;;10.57;;
16199;SDS011;8207;52.494;4.654;2023-05-10T09:35:09;10.80;;;9.23;;
16199;SDS011;8207;52.494;4.654;2023-05-10T09:37:38;11.75;;;9.13;;
16199;SDS011;8207;52.494;4.654;2023-05-10T09:40:07;14.02;;;11.15;;
16199;SDS011;8207;52.494;4.654;2023-05-10T09:42:37;13.00;;;10.18;;
16199;SDS011;8207;52.494;4.654;2023-05-10T09:45:06;16.10;;;11.45;;
16199;SDS011;8207;52.494;4.654;2023-05-10T09:47:33;14.73;;;10.93;;
16199;SDS011;8207;52.494;4.654;2023-05-10T09:50:01;15.60;;;10.52;;
16199;SDS011;8207;52.494;4.654;2023-05-10T09:52:29;13.80;;;9.93;;
16199;SDS011;8207;52.494;4.654;2023-05-10T09:54:57;13.70;;;10.88;;
16199;SDS011;8207;52.494;4.654;2023-05-10T09:57:24;14.00;;;10.98;;
16199;SDS011;8207;52.494;4.654;2023-05-10T09:59:51;17.23;;;12.52;;
16199;SDS011;8207;52.494;4.654;2023-05-10T10:02:20;15.88;;;11.82;;
16199;SDS011;8207;52.494;4.654;2023-05-10T10:04:54;18.02;;;12.38;;
16199;SDS011;8207;52.494;4.654;2023-05-10T10:07:22;16.35;;;12.00;;
16199;SDS011;8207;52.494;4.654;2023-05-10T10:09:51;14.98;;;10.85;;
16199;SDS011;8207;52.494;4.654;2023-05-10T10:12:19;12.88;;;9.55;;
16199;SDS011;8207;52.494;4.654;2023-05-10T10:14:46;16.23;;;10.77;;
16199;SDS011;8207;52.494;4.654;2023-05-10T10:17:14;12.20;;;9.60;;
16199;SDS011;8207;52.494;4.654;2023-05-10T10:19:43;15.52;;;11.02;;
16199;SDS011;8207;52.494;4.654;2023-05-10T10:22:11;13.07;;;9.98;;
16199;SDS011;8207;52.494;4.654;2023-05-10T10:24:38;9.48;;;8.50;;
16199;SDS011;8207;52.494;4.654;2023-05-10T10:27:11;10.45;;;8.75;;
16199;SDS011;8207;52.494;4.654;2023-05-10T10:29:47;11.55;;;8.98;;
16199;SDS011;8207;52.494;4.654;2023-05-10T10:32:25;12.60;;;9.70;;
16199;SDS011;8207;52.494;4.654;2023-05-10T10:35:11;13.48;;;10.13;;
16199;SDS011;8207;52.494;4.654;2023-05-10T10:37:46;14.60;;;11.30;;
16199;SDS011;8207;52.494;4.654;2023-05-10T10:40:23;14.60;;;10.98;;
16199;SDS011;8207;52.494;4.654;2023-05-10T10:42:51;12.80;;;9.45;;
16199;SDS011;8207;52.494;4.654;2023-05-10T10:45:20;11.98;;;8.82;;
16199;SDS011;8207;52.494;4.654;2023-05-10T10:47:47;13.35;;;10.65;;
16199;SDS011;8207;52.494;4.654;2023-05-10T10:50:16;15.10;;;10.48;;
16199;SDS011;8207;52.494;4.654;2023-05-10T10:52:43;14.15;;;9.85;;
16199;SDS011;8207;52.494;4.654;2023-05-10T10:55:11;10.07;;;9.00;;
16199;SDS011;8207;52.494;4.654;2023-05-10T10:57:43;10.65;;;8.63;;
16199;SDS011;8207;52.494;4.654;2023-05-10T11:00:22;9.25;;;7.60;;
16199;SDS011;8207;52.494;4.654;2023-05-10T11:02:54;8.85;;;7.47;;
16199;SDS011;8207;52.494;4.654;2023-05-10T11:08:08;14.00;;;9.93;;
16199;SDS011;8207;52.494;4.654;2023-05-10T11:10:37;8.90;;;7.20;;
16199;SDS011;8207;52.494;4.654;2023-05-10T11:13:05;10.55;;;8.60;;
16199;SDS011;8207;52.494;4.654;2023-05-10T11:15:34;10.10;;;8.00;;
16199;SDS011;8207;52.494;4.654;2023-05-10T11:18:16;11.35;;;9.20;;
16199;SDS011;8207;52.494;4.654;2023-05-10T11:20:45;10.60;;;8.18;;
16199;SDS011;8207;52.494;4.654;2023-05-10T11:23:17;9.55;;;7.47;;
16199;SDS011;8207;52.494;4.654;2023-05-10T11:25:45;6.82;;;6.13;;
16199;SDS011;8207;52.494;4.654;2023-05-10T11:28:12;7.97;;;6.78;;
16199;SDS011;8207;52.494;4.654;2023-05-10T11:30:39;9.35;;;7.78;;
16199;SDS011;8207;52.494;4.654;2023-05-10T11:33:07;9.93;;;8.27;;
16199;SDS011;8207;52.494;4.654;2023-05-10T11:35:37;8.27;;;6.28;;
16199;SDS011;8207;52.494;4.654;2023-05-10T11:38:07;10.15;;;6.45;;
16199;SDS011;8207;52.494;4.654;2023-05-10T11:40:34;6.10;;;5.50;;
16199;SDS011;8207;52.494;4.654;2023-05-10T11:43:01;7.50;;;6.00;;
16199;SDS011;8207;52.494;4.654;2023-05-10T11:45:29;6.65;;;6.05;;
16199;SDS011;8207;52.494;4.654;2023-05-10T11:47:58;6.32;;;5.68;;
16199;SDS011;8207;52.494;4.654;2023-05-10T11:50:25;10.77;;;7.57;;
16199;SDS011;8207;52.494;4.654;2023-05-10T11:52:53;7.47;;;6.72;;
16199;SDS011;8207;52.494;4.654;2023-05-10T11:55:22;10.18;;;7.60;;
16199;SDS011;8207;52.494;4.654;2023-05-10T11:57:51;7.90;;;6.28;;
16199;SDS011;8207;52.494;4.654;2023-05-10T12:00:19;7.47;;;6.78;;
16199;SDS011;8207;52.494;4.654;2023-05-10T12:02:46;6.95;;;5.93;;
16199;SDS011;8207;52.494;4.654;2023-05-10T12:05:13;6.90;;;6.20;;
16199;SDS011;8207;52.494;4.654;2023-05-10T12:07:40;6.25;;;5.40;;
16199;SDS011;8207;52.494;4.654;2023-05-10T12:10:07;7.03;;;4.85;;
16199;SDS011;8207;52.494;4.654;2023-05-10T12:12:39;7.50;;;6.75;;
16199;SDS011;8207;52.494;4.654;2023-05-10T12:15:11;9.95;;;7.40;;
16199;SDS011;8207;52.494;4.654;2023-05-10T12:17:38;7.05;;;6.05;;
16199;SDS011;8207;52.494;4.654;2023-05-10T12:20:15;6.53;;;5.85;;
16199;SDS011;8207;52.494;4.654;2023-05-10T12:22:44;7.97;;;6.50;;
16199;SDS011;8207;52.494;4.654;2023-05-10T12:25:12;6.05;;;5.45;;
16199;SDS011;8207;52.494;4.654;2023-05-10T12:27:40;6.18;;;4.93;;
16199;SDS011;8207;52.494;4.654;2023-05-10T12:30:13;5.60;;;5.10;;
16199;SDS011;8207;52.494;4.654;2023-05-10T12:32:46;5.30;;;4.80;;
16199;SDS011;8207;52.494;4.654;2023-05-10T12:35:12;5.28;;;4.82;;
16199;SDS011;8207;52.494;4.654;2023-05-10T12:37:40;6.25;;;4.70;;
16199;SDS011;8207;52.494;4.654;2023-05-10T12:40:08;7.90;;;6.93;;
16199;SDS011;8207;52.494;4.654;2023-05-10T12:42:37;7.63;;;6.85;;
16199;SDS011;8207;52.494;4.654;2023-05-10T12:45:06;7.05;;;6.35;;
16199;SDS011;8207;52.494;4.654;2023-05-10T12:47:34;5.68;;;5.18;;
16199;SDS011;8207;52.494;4.654;2023-05-10T12:50:02;5.65;;;5.05;;
16199;SDS011;8207;52.494;4.654;2023-05-10T12:52:29;6.45;;;5.85;;
16199;SDS011;8207;52.494;4.654;2023-05-10T12:54:57;6.18;;;5.57;;
16199;SDS011;8207;52.494;4.654;2023-05-10T12:57:24;7.40;;;6.32;;
16199;SDS011;8207;52.494;4.654;2023-05-10T12:59:53;7.28;;;6.03;;
16199;SDS011;8207;52.494;4.654;2023-05-10T13:02:20;7.25;;;6.53;;
16199;SDS011;8207;52.494;4.654;2023-05-10T13:04:48;8.15;;;6.53;;
16199;SDS011;8207;52.494;4.654;2023-05-10T13:07:15;8.18;;;6.72;;
16199;SDS011;8207;52.494;4.654;2023-05-10T13:09:42;6.82;;;5.63;;
16199;SDS011;8207;52.494;4.654;2023-05-10T13:12:09;8.00;;;6.35;;
16199;SDS011;8207;52.494;4.654;2023-05-10T13:14:35;6.85;;;6.10;;
16199;SDS011;8207;52.494;4.654;2023-05-10T13:17:04;7.35;;;5.85;;
16199;SDS011;8207;52.494;4.654;2023-05-10T13:19:31;8.38;;;6.60;;
16199;SDS011;8207;52.494;4.654;2023-05-10T13:21:58;9.35;;;6.88;;
16199;SDS011;8207;52.494;4.654;2023-05-10T13:24:24;7.28;;;5.93;;
16199;SDS011;8207;52.494;4.654;2023-05-10T13:26:51;6.38;;;5.68;;
16199;SDS011;8207;52.494;4.654;2023-05-10T13:29:18;8.45;;;6.53;;
16199;SDS011;8207;52.494;4.654;2023-05-10T13:31:46;8.48;;;6.45;;
16199;SDS011;8207;52.494;4.654;2023-05-10T13:34:14;8.05;;;6.55;;
16199;SDS011;8207;52.494;4.654;2023-05-10T13:36:40;8.63;;;6.40;;
16199;SDS011;8207;52.494;4.654;2023-05-10T13:39:07;7.32;;;6.40;;
16199;SDS011;8207;52.494;4.654;2023-05-10T13:41:34;9.55;;;6.82;;
16199;SDS011;8207;52.494;4.654;2023-05-10T13:44:01;10.07;;;7.13;;
16199;SDS011;8207;52.494;4.654;2023-05-10T13:46:28;7.88;;;6.50;;
16199;SDS011;8207;52.494;4.654;2023-05-10T13:48:55;7.07;;;5.93;;
16199;SDS011;8207;52.494;4.654;2023-05-10T13:51:24;7.32;;;5.40;;
16199;SDS011;8207;52.494;4.654;2023-05-10T13:53:51;8.65;;;5.72;;
16199;SDS011;8207;52.494;4.654;2023-05-10T13:56:18;8.73;;;6.22;;
16199;SDS011;8207;52.494;4.654;2023-05-10T13:58:44;6.72;;;5.60;;
16199;SDS011;8207;52.494;4.654;2023-05-10T14:01:11;7.70;;;5.72;;
16199;SDS011;8207;52.494;4.654;2023-05-10T14:03:38;8.73;;;5.68;;
16199;SDS011;8207;52.494;4.654;2023-05-10T14:06:05;7.00;;;5.28;;
16199;SDS011;8207;52.494;4.654;2023-05-10T14:08:34;7.20;;;4.85;;
16199;SDS011;8207;52.494;4.654;2023-05-10T14:11:01;6.72;;;4.85;;
16199;SDS011;8207;52.494;4.654;2023-05-10T14:13:28;6.38;;;5.28;;
16199;SDS011;8207;52.494;4.654;2023-05-10T14:15:55;8.77;;;5.22;;
16199;SDS011;8207;52.494;4.654;2023-05-10T14:18:23;5.75;;;5.07;;
16199;SDS011;8207;52.494;4.654;2023-05-10T14:20:50;5.40;;;4.40;;
16199;SDS011;8207;52.494;4.654;2023-05-10T14:23:17;5.53;;;4.43;;
16199;SDS011;8207;52.494;4.654;2023-05-10T14:25:50;4.43;;;4.03;;
16199;SDS011;8207;52.494;4.654;2023-05-10T14:28:17;5.47;;;4.53;;
16199;SDS011;8207;52.494;4.654;2023-05-10T14:30:45;4.63;;;4.13;;
16199;SDS011;8207;52.494;4.654;2023-05-10T14:33:12;4.55;;;3.92;;
16199;SDS011;8207;52.494;4.654;2023-05-10T14:35:39;3.85;;;3.40;;
16199;SDS011;8207;52.494;4.654;2023-05-10T14:38:06;5.57;;;4.55;;
16199;SDS011;8207;52.494;4.654;2023-05-10T14:40:33;5.78;;;4.68;;
16199;SDS011;8207;52.494;4.654;2023-05-10T14:43:01;5.25;;;4.75;;
16199;SDS011;8207;52.494;4.654;2023-05-10T14:45:28;5.13;;;4.65;;
16199;SDS011;8207;52.494;4.654;2023-05-10T14:47:55;5.18;;;4.68;;
16199;SDS011;8207;52.494;4.654;2023-05-10T14:50:22;5.80;;;4.90;;
16199;SDS011;8207;52.494;4.654;2023-05-10T14:52:49;5.68;;;5.07;;
16199;SDS011;8207;52.494;4.654;2023-05-10T14:55:16;6.75;;;5.40;;
16199;SDS011;8207;52.494;4.654;2023-05-10T14:57:43;7.50;;;6.47;;
16199;SDS011;8207;52.494;4.654;2023-05-10T15:00:14;7.68;;;6.47;;
16199;SDS011;8207;52.494;4.654;2023-05-10T15:02:42;9.02;;;6.93;;